Time;durP1;ratioP1;P1;durP2;ratioP2;P2;SDS_P1;SDS_P2;PMS_P1;PMS_P2;Temp;Humidity;BMP_temperature;BMP_pressure;BME280_temperature;BME280_humidity;BME280_pressure;Samples;Min_cycle;Max_cycle;Signal;HPM_P1;HPM_P2
2021/11/24 00:02:14;;;;;;;;;;;7.20;1.00;;;;;;5074361;28;20372;-85
2021/11/24 00:04:39;;;;;;;;;;;7.20;1.00;;;;;;5069417;28;19916;-84
2021/11/24 00:07:05;;;;;;;;;;;7.20;1.00;;;;;;5074336;28;19955;-85
2021/11/24 00:09:30;;;;;;;;;;;7.20;1.00;;;;;;5062558;28;19912;-85
2021/11/24 00:11:56;;;;;;;;;;;7.10;1.00;;;;;;5067583;28;20400;-87
2021/11/24 00:14:21;;;;;;;;;;;7.10;1.00;;;;;;5065336;28;19919;-85
2021/11/24 00:16:47;;;;;;;;;;;7.00;1.00;;;;;;5072538;28;20445;-85
2021/11/24 00:19:12;;;;;;;;;;;7.00;1.00;;;;;;5065253;28;20295;-85
2021/11/24 00:21:38;;;;;;;;;;;7.00;1.00;;;;;;5073739;28;20399;-84
2021/11/24 00:24:03;;;;;;;;;;;6.90;1.00;;;;;;5066707;28;19913;-88
2021/11/24 00:26:29;;;;;;;;;;;7.00;1.00;;;;;;5063055;28;19913;-85
2021/11/24 00:28:54;;;;;;;;;;;7.00;1.00;;;;;;5064573;28;20379;-85
2021/11/24 00:31:20;;;;;;;;;;;7.10;1.00;;;;;;5070181;28;19912;-85
2021/11/24 00:33:45;;;;;;;;;;;7.10;1.00;;;;;;5057478;28;19917;-84
2021/11/24 00:36:11;;;;;;;;;;;7.20;1.00;;;;;;5069074;28;19920;-85
2021/11/24 00:38:36;;;;;;;;;;;7.20;1.00;;;;;;5072995;28;20443;-85
2021/11/24 00:41:02;;;;;;;;;;;7.20;1.00;;;;;;5069164;28;19912;-85
2021/11/24 00:43:27;;;;;;;;;;;7.20;1.00;;;;;;5051084;28;19959;-85
2021/11/24 00:45:53;;;;;;;;;;;7.20;1.00;;;;;;5047436;28;19912;-86
2021/11/24 00:48:19;;;;;;;;;;;7.10;1.00;;;;;;5066394;28;19913;-86
2021/11/24 00:50:45;;;;;;;;;;;7.20;1.00;;;;;;5067304;28;19913;-83
2021/11/24 00:53:10;;;;;;;;;;;7.20;1.00;;;;;;5068109;28;19978;-84
2021/11/24 00:55:36;;;;;;;;;;;7.10;1.00;;;;;;5074543;28;19912;-85
2021/11/24 00:58:01;;;;;;;;;;;7.10;1.00;;;;;;5065966;28;19987;-84
2021/11/24 01:00:27;;;;;;;;;;;7.10;1.00;;;;;;5075042;28;19913;-85
2021/11/24 01:02:52;;;;;;;;;;;7.20;1.00;;;;;;5077173;28;19913;-86
2021/11/24 01:05:18;;;;;;;;;;;7.20;1.00;;;;;;5059511;28;19982;-87
2021/11/24 01:07:44;;;;;;;;;;;7.10;1.00;;;;;;5070333;28;19913;-85
2021/11/24 01:10:09;;;;;;;;;;;7.20;1.00;;;;;;5075205;28;19913;-85
2021/11/24 01:12:36;;;;;;;;;;;7.20;1.00;;;;;;5069809;28;19969;-85
2021/11/24 01:15:02;;;;;;;;;;;7.20;1.00;;;;;;5061644;28;19916;-85
2021/11/24 01:17:27;;;;;;;;;;;7.30;1.00;;;;;;5073450;28;19916;-85
2021/11/24 01:19:53;;;;;;;;;;;7.30;1.00;;;;;;5074072;28;19908;-87
2021/11/24 01:22:18;;;;;;;;;;;7.30;1.00;;;;;;5047810;28;19916;-85
2021/11/24 01:24:44;;;;;;;;;;;7.40;1.00;;;;;;5064096;28;19913;-85
2021/11/24 01:27:09;;;;;;;;;;;7.40;1.00;;;;;;5075966;28;20410;-87
2021/11/24 01:29:35;;;;;;;;;;;7.40;1.00;;;;;;5068396;28;19913;-86
2021/11/24 01:32:00;;;;;;;;;;;7.40;1.00;;;;;;5068834;28;19920;-85
2021/11/24 01:34:26;;;;;;;;;;;7.30;1.00;;;;;;5077747;28;19999;-85
2021/11/24 01:36:51;;;;;;;;;;;7.40;1.00;;;;;;5070138;28;19919;-85
2021/11/24 01:39:16;;;;;;;;;;;7.30;1.00;;;;;;5074442;28;19962;-85
2021/11/24 01:41:42;;;;;;;;;;;7.30;1.00;;;;;;5067388;28;20376;-85
2021/11/24 01:44:17;;;;;;;;;;;7.30;1.00;;;;;;5067306;28;20306;-85
2021/11/24 01:46:43;;;;;;;;;;;7.30;1.00;;;;;;5062848;28;19951;-86
2021/11/24 01:49:08;;;;;;;;;;;7.30;1.00;;;;;;5073373;28;19912;-84
2021/11/24 01:51:34;;;;;;;;;;;7.30;1.00;;;;;;5076222;28;19913;-85
2021/11/24 01:53:59;;;;;;;;;;;7.40;1.00;;;;;;5068839;28;19916;-86
2021/11/24 01:56:26;;;;;;;;;;;7.40;1.00;;;;;;5076369;28;19955;-85
2021/11/24 01:58:51;;;;;;;;;;;7.30;1.00;;;;;;5061489;28;19913;-84
2021/11/24 02:01:16;;;;;;;;;;;7.30;1.00;;;;;;5071824;28;19916;-84
2021/11/24 02:03:42;;;;;;;;;;;7.30;1.00;;;;;;5068340;28;20015;-85
2021/11/24 02:06:09;;;;;;;;;;;7.30;1.00;;;;;;5073579;28;19916;-84
2021/11/24 02:08:35;;;;;;;;;;;7.40;1.00;;;;;;5070507;28;19912;-85
2021/11/24 02:11:00;;;;;;;;;;;7.40;1.00;;;;;;5075920;28;19909;-85
2021/11/24 02:13:26;;;;;;;;;;;7.40;1.00;;;;;;5052786;28;19928;-84
2021/11/24 02:15:51;;;;;;;;;;;7.30;1.00;;;;;;5076025;28;19923;-85
2021/11/24 02:18:17;;;;;;;;;;;7.30;1.00;;;;;;5052755;28;20338;-84
2021/11/24 02:20:43;;;;;;;;;;;7.30;1.00;;;;;;5057386;28;19913;-84
2021/11/24 02:23:10;;;;;;;;;;;7.30;1.00;;;;;;5052664;28;19920;-86
2021/11/24 02:25:35;;;;;;;;;;;7.30;1.00;;;;;;5065718;28;19974;-86
2021/11/24 02:28:01;;;;;;;;;;;7.30;1.00;;;;;;5074058;28;19913;-83
2021/11/24 02:30:26;;;;;;;;;;;7.30;1.00;;;;;;5073302;28;20008;-85
2021/11/24 02:32:52;;;;;;;;;;;7.30;1.00;;;;;;5055399;28;19917;-85
2021/11/24 02:35:18;;;;;;;;;;;7.30;1.00;;;;;;5074614;28;19916;-84
2021/11/24 02:37:43;;;;;;;;;;;7.30;1.00;;;;;;5067464;28;19913;-84
2021/11/24 02:40:09;;;;;;;;;;;7.40;1.00;;;;;;5076177;28;19909;-85
2021/11/24 02:42:38;;;;;;;;;;;7.40;1.00;;;;;;5072951;28;19912;-85
2021/11/24 02:45:04;;;;;;;;;;;7.40;1.00;;;;;;5076518;28;19959;-84
2021/11/24 02:47:30;;;;;;;;;;;7.40;1.00;;;;;;5069722;28;19912;-89
2021/11/24 02:49:56;;;;;;;;;;;7.40;1.00;;;;;;5067079;28;20080;-85
2021/11/24 02:52:22;;;;;;;;;;;7.40;1.00;;;;;;5074173;28;19959;-85
2021/11/24 02:54:48;;;;;;;;;;;7.40;1.00;;;;;;5067850;28;19920;-85
2021/11/24 02:57:14;;;;;;;;;;;7.50;1.00;;;;;;5073971;28;19919;-84
2021/11/24 02:59:39;;;;;;;;;;;7.50;1.00;;;;;;5072593;28;19913;-85
2021/11/24 03:02:05;;;;;;;;;;;7.50;1.00;;;;;;5075118;28;19944;-85
2021/11/24 03:04:31;;;;;;;;;;;7.50;1.00;;;;;;5051176;28;19985;-84
2021/11/24 03:06:57;;;;;;;;;;;7.50;1.00;;;;;;5067281;28;20399;-87
2021/11/24 03:09:23;;;;;;;;;;;7.50;1.00;;;;;;5076185;28;19913;-89
2021/11/24 03:11:49;;;;;;;;;;;7.50;1.00;;;;;;5071941;28;20020;-85
2021/11/24 03:14:14;;;;;;;;;;;7.50;1.00;;;;;;5072091;28;19918;-87
2021/11/24 03:16:40;;;;;;;;;;;7.50;1.00;;;;;;5067561;28;20007;-85
2021/11/24 03:19:05;;;;;;;;;;;7.50;1.00;;;;;;5071236;28;19912;-84
2021/11/24 03:21:31;;;;;;;;;;;7.50;1.00;;;;;;5062952;28;19912;-86
2021/11/24 03:23:56;;;;;;;;;;;7.50;1.00;;;;;;5071609;28;19917;-85
2021/11/24 03:26:21;;;;;;;;;;;7.40;1.00;;;;;;5073182;28;20403;-85
2021/11/24 03:28:47;;;;;;;;;;;7.40;1.00;;;;;;5071800;28;19913;-84
2021/11/24 03:31:13;;;;;;;;;;;7.30;1.00;;;;;;5073407;28;19913;-85
2021/11/24 03:33:38;;;;;;;;;;;7.30;1.00;;;;;;5073078;28;20361;-85
2021/11/24 03:36:04;;;;;;;;;;;7.40;1.00;;;;;;5073942;28;19912;-84
2021/11/24 03:38:30;;;;;;;;;;;7.40;1.00;;;;;;5054946;28;19913;-85
2021/11/24 03:40:55;;;;;;;;;;;7.40;1.00;;;;;;5063260;28;19923;-85
2021/11/24 03:43:20;;;;;;;;;;;7.40;1.00;;;;;;5072273;28;20618;-85
2021/11/24 03:45:46;;;;;;;;;;;7.30;1.00;;;;;;5050380;28;20038;-85
2021/11/24 03:48:11;;;;;;;;;;;7.40;1.00;;;;;;5070833;28;19920;-84
2021/11/24 03:50:37;;;;;;;;;;;7.30;1.00;;;;;;5070580;28;19919;-84
2021/11/24 03:53:03;;;;;;;;;;;7.20;1.00;;;;;;5071948;28;20437;-84
2021/11/24 03:55:29;;;;;;;;;;;7.20;1.00;;;;;;5058591;28;20576;-85
2021/11/24 03:57:55;;;;;;;;;;;7.20;1.00;;;;;;5068917;28;20011;-85
2021/11/24 04:00:22;;;;;;;;;;;7.10;1.00;;;;;;5070042;28;19955;-85
2021/11/24 04:02:48;;;;;;;;;;;7.10;1.00;;;;;;5071130;28;19999;-85
2021/11/24 04:05:13;;;;;;;;;;;7.10;1.00;;;;;;5073837;28;19985;-86
2021/11/24 04:07:39;;;;;;;;;;;7.10;1.00;;;;;;5073556;28;19913;-84
2021/11/24 04:10:05;;;;;;;;;;;7.00;1.00;;;;;;5057163;28;19909;-85
2021/11/24 04:12:31;;;;;;;;;;;7.00;1.00;;;;;;5062521;28;20301;-85
2021/11/24 04:14:57;;;;;;;;;;;7.00;1.00;;;;;;5071020;28;19913;-84
2021/11/24 04:17:22;;;;;;;;;;;6.90;1.00;;;;;;5073220;28;19916;-85
2021/11/24 04:19:48;;;;;;;;;;;6.90;1.00;;;;;;5070211;28;20398;-85
2021/11/24 04:22:14;;;;;;;;;;;6.90;1.00;;;;;;5070042;28;19946;-85
2021/11/24 04:24:40;;;;;;;;;;;6.90;1.00;;;;;;5073681;28;20288;-85
2021/11/24 04:27:05;;;;;;;;;;;6.90;1.00;;;;;;5070635;28;19952;-85
2021/11/24 04:29:31;;;;;;;;;;;6.80;1.00;;;;;;5079319;22;19924;-83
2021/11/24 04:31:57;;;;;;;;;;;6.80;1.00;;;;;;5062665;28;19921;-81
2021/11/24 04:34:22;;;;;;;;;;;6.80;1.00;;;;;;5061683;28;19932;-83
2021/11/24 04:36:48;;;;;;;;;;;6.90;1.00;;;;;;5067598;28;19919;-83
2021/11/24 04:39:13;;;;;;;;;;;6.90;1.00;;;;;;5065909;28;19999;-82
2021/11/24 04:41:39;;;;;;;;;;;6.90;1.00;;;;;;5048797;28;20288;-82
2021/11/24 04:44:05;;;;;;;;;;;6.80;1.00;;;;;;5065069;28;19913;-83
2021/11/24 04:46:30;;;;;;;;;;;6.80;1.00;;;;;;5043852;28;20296;-82
2021/11/24 04:48:56;;;;;;;;;;;6.70;1.00;;;;;;5066145;28;19962;-82
2021/11/24 04:51:21;;;;;;;;;;;6.70;1.00;;;;;;5064895;28;19920;-83
2021/11/24 04:53:47;;;;;;;;;;;6.70;1.00;;;;;;5066527;28;19917;-81
2021/11/24 04:56:13;;;;;;;;;;;6.70;1.00;;;;;;5070565;28;19927;-82
2021/11/24 04:58:43;;;;;;;;;;;6.70;1.00;;;;;;5053355;28;19917;-81
2021/11/24 05:01:09;;;;;;;;;;;6.70;1.00;;;;;;5064094;28;19917;-81
2021/11/24 05:03:35;;;;;;;;;;;6.70;1.00;;;;;;5060119;28;19919;-81
2021/11/24 05:06:00;;;;;;;;;;;6.70;1.00;;;;;;5045387;28;19920;-83
2021/11/24 05:08:26;;;;;;;;;;;6.70;1.00;;;;;;5064010;28;19912;-82
2021/11/24 05:10:51;;;;;;;;;;;6.70;1.00;;;;;;5053253;28;20004;-81
2021/11/24 05:13:17;;;;;;;;;;;6.80;1.00;;;;;;5063327;28;20004;-83
2021/11/24 05:15:44;;;;;;;;;;;6.80;1.00;;;;;;5064461;28;19966;-81
2021/11/24 05:18:18;;;;;;;;;;;6.80;1.00;;;;;;5061503;28;19916;-81
2021/11/24 05:20:45;;;;;;;;;;;6.80;1.00;;;;;;5062167;28;19939;-82
2021/11/24 05:23:14;;;;;;;;;;;6.90;1.00;;;;;;5056685;28;19920;-82
2021/11/24 05:25:40;;;;;;;;;;;6.90;1.00;;;;;;5062943;28;19908;-81
2021/11/24 05:28:05;;;;;;;;;;;6.90;1.00;;;;;;5063705;28;19913;-82
2021/11/24 05:30:31;;;;;;;;;;;6.80;1.00;;;;;;5064071;28;19965;-82
2021/11/24 05:32:57;;;;;;;;;;;6.80;1.00;;;;;;5044620;28;19917;-81
2021/11/24 05:35:25;;;;;;;;;;;6.80;1.00;;;;;;5059270;28;19919;-82
2021/11/24 05:37:51;;;;;;;;;;;6.80;1.00;;;;;;5062261;28;19989;-81
2021/11/24 05:40:17;;;;;;;;;;;6.90;1.00;;;;;;5062038;28;19913;-81
2021/11/24 05:42:51;;;;;;;;;;;7.00;1.00;;;;;;5061548;28;20008;-83
2021/11/24 05:48:02;;;;;;;;;;;7.00;1.00;;;;;;5064225;28;19920;-83
2021/11/24 05:50:28;;;;;;;;;;;7.00;1.00;;;;;;5063205;28;19931;-82
2021/11/24 05:52:54;;;;;;;;;;;7.00;1.00;;;;;;5042574;28;19963;-82
2021/11/24 05:55:20;;;;;;;;;;;6.90;1.00;;;;;;5050453;28;19920;-82
2021/11/24 05:57:46;;;;;;;;;;;6.90;1.00;;;;;;5050538;28;20288;-83
2021/11/24 06:00:12;;;;;;;;;;;6.90;1.00;;;;;;5061200;28;20013;-82
2021/11/24 06:02:38;;;;;;;;;;;6.90;1.00;;;;;;5061874;28;19920;-82
2021/11/24 06:05:03;;;;;;;;;;;6.90;1.00;;;;;;5053358;28;19917;-82
2021/11/24 06:07:29;;;;;;;;;;;6.90;1.00;;;;;;5063597;28;19920;-81
2021/11/24 06:09:54;;;;;;;;;;;6.90;1.00;;;;;;5059407;28;19959;-82
2021/11/24 06:12:20;;;;;;;;;;;6.90;1.00;;;;;;5044703;28;19913;-84
2021/11/24 06:14:46;;;;;;;;;;;6.90;1.00;;;;;;5061858;28;19916;-82
2021/11/24 06:17:11;;;;;;;;;;;6.90;1.00;;;;;;5063685;28;19920;-83
2021/11/24 06:19:37;;;;;;;;;;;6.90;1.00;;;;;;5045596;28;19912;-82
2021/11/24 06:22:02;;;;;;;;;;;6.90;1.00;;;;;;5052761;28;19955;-83
2021/11/24 06:24:28;;;;;;;;;;;7.00;1.00;;;;;;5045176;28;19917;-82
2021/11/24 06:26:53;;;;;;;;;;;7.00;1.00;;;;;;5058987;28;19913;-82
2021/11/24 06:29:19;;;;;;;;;;;7.00;1.00;;;;;;5069555;28;19927;-83
2021/11/24 06:31:44;;;;;;;;;;;7.00;1.00;;;;;;5052979;28;19944;-82
2021/11/24 06:34:10;;;;;;;;;;;7.00;1.00;;;;;;5044392;28;19917;-82
2021/11/24 06:36:35;;;;;;;;;;;7.00;1.00;;;;;;5062661;28;19913;-83
2021/11/24 06:39:01;;;;;;;;;;;6.90;1.00;;;;;;5064097;28;19943;-81
2021/11/24 06:41:26;;;;;;;;;;;6.90;1.00;;;;;;5065602;28;19931;-80
2021/11/24 06:43:51;;;;;;;;;;;7.00;1.00;;;;;;5041494;28;19913;-80
2021/11/24 06:46:17;;;;;;;;;;;7.00;1.00;;;;;;5048338;28;20368;-80
2021/11/24 06:48:42;;;;;;;;;;;7.10;1.00;;;;;;5053361;28;19919;-83
2021/11/24 06:51:09;;;;;;;;;;;7.10;1.00;;;;;;5047761;28;19913;-80
2021/11/24 06:53:34;;;;;;;;;;;7.10;1.00;;;;;;5046496;28;20011;-82
2021/11/24 06:56:00;;;;;;;;;;;7.10;1.00;;;;;;5056042;28;19955;-79
2021/11/24 06:58:25;;;;;;;;;;;7.10;1.00;;;;;;5056541;28;19916;-78
2021/11/24 07:00:51;;;;;;;;;;;7.10;1.00;;;;;;5053299;28;19956;-78
2021/11/24 07:03:16;;;;;;;;;;;7.10;1.00;;;;;;5054596;28;19992;-77
2021/11/24 07:05:42;;;;;;;;;;;7.10;1.00;;;;;;5037411;28;19928;-78
2021/11/24 07:08:07;;;;;;;;;;;7.00;1.00;;;;;;5037232;28;19916;-77
2021/11/24 07:10:33;;;;;;;;;;;7.00;1.00;;;;;;5036878;28;19963;-77
2021/11/24 07:12:59;;;;;;;;;;;7.00;1.00;;;;;;5035998;28;19921;-78
2021/11/24 07:15:26;;;;;;;;;;;7.00;1.00;;;;;;5036733;28;19958;-77
2021/11/24 07:17:51;;;;;;;;;;;7.00;1.00;;;;;;5033575;28;20406;-78
2021/11/24 07:20:17;;;;;;;;;;;7.00;1.00;;;;;;5037531;28;19921;-77
2021/11/24 07:22:42;;;;;;;;;;;7.00;1.00;;;;;;5055361;28;19910;-78
2021/11/24 07:25:09;;;;;;;;;;;7.00;1.00;;;;;;5037194;28;20324;-78
2021/11/24 07:27:34;;;;;;;;;;;7.00;1.00;;;;;;5051118;28;19913;-78
2021/11/24 07:30:00;;;;;;;;;;;7.00;1.00;;;;;;5054483;28;19917;-78
2021/11/24 07:32:25;;;;;;;;;;;7.00;1.00;;;;;;5053551;28;19913;-80
2021/11/24 07:34:51;;;;;;;;;;;7.00;1.00;;;;;;5051338;28;19948;-80
2021/11/24 07:37:16;;;;;;;;;;;7.00;1.00;;;;;;5056282;28;19913;-80
2021/11/24 07:39:42;;;;;;;;;;;7.00;1.00;;;;;;5056357;28;20293;-79
2021/11/24 07:42:07;;;;;;;;;;;7.00;1.00;;;;;;5033775;28;19970;-79
2021/11/24 07:44:32;;;;;;;;;;;7.00;1.00;;;;;;5054443;28;19920;-80
2021/11/24 07:46:58;;;;;;;;;;;7.10;1.00;;;;;;5056547;28;20292;-80
2021/11/24 07:49:23;;;;;;;;;;;7.10;1.00;;;;;;5055667;28;19928;-79
2021/11/24 07:51:49;;;;;;;;;;;7.20;1.00;;;;;;5051421;28;19913;-80
2021/11/24 07:54:14;;;;;;;;;;;7.30;1.00;;;;;;5058436;28;20442;-80
2021/11/24 07:56:40;;;;;;;;;;;7.30;1.00;;;;;;5059471;28;19916;-79
2021/11/24 07:59:05;;;;;;;;;;;7.40;1.00;;;;;;5047289;28;20673;-80
2021/11/24 08:01:31;;;;;;;;;;;7.40;1.00;;;;;;5053347;28;19912;-79
2021/11/24 08:03:56;;;;;;;;;;;7.40;1.00;;;;;;5056513;28;20000;-78
2021/11/24 08:06:22;;;;;;;;;;;7.40;1.00;;;;;;5053970;28;20265;-79
2021/11/24 08:08:47;;;;;;;;;;;7.40;1.00;;;;;;5058274;28;19913;-79
2021/11/24 08:11:13;;;;;;;;;;;7.40;1.00;;;;;;5040676;28;19932;-79
2021/11/24 08:13:38;;;;;;;;;;;7.30;1.00;;;;;;5047662;28;19921;-78
2021/11/24 08:16:04;;;;;;;;;;;7.30;1.00;;;;;;5052501;28;20388;-79
2021/11/24 08:18:29;;;;;;;;;;;7.30;1.00;;;;;;5056001;28;19917;-79
2021/11/24 08:20:55;;;;;;;;;;;7.20;1.00;;;;;;5038165;28;19921;-78
2021/11/24 08:23:21;;;;;;;;;;;7.20;1.00;;;;;;5058373;28;19913;-79
2021/11/24 08:25:46;;;;;;;;;;;7.10;1.00;;;;;;5038795;28;19913;-78
2021/11/24 08:28:12;;;;;;;;;;;7.10;1.00;;;;;;5037594;28;20002;-78
2021/11/24 08:30:37;;;;;;;;;;;7.10;1.00;;;;;;5058563;28;19955;-79
2021/11/24 08:33:03;;;;;;;;;;;7.20;1.00;;;;;;5059056;28;19917;-79
2021/11/24 08:35:28;;;;;;;;;;;7.20;1.00;;;;;;5061342;28;19912;-79
2021/11/24 08:37:53;;;;;;;;;;;7.30;1.00;;;;;;5061330;28;19936;-78
2021/11/24 08:40:19;;;;;;;;;;;7.30;1.00;;;;;;5060994;28;19920;-78
2021/11/24 08:42:45;;;;;;;;;;;7.30;1.00;;;;;;5057060;28;19963;-78
2021/11/24 08:45:10;;;;;;;;;;;7.40;1.00;;;;;;5058480;28;19919;-78
2021/11/24 08:47:37;;;;;;;;;;;7.40;1.00;;;;;;5058387;28;19916;-79
2021/11/24 08:50:03;;;;;;;;;;;7.50;1.00;;;;;;5060070;28;19937;-79
2021/11/24 08:52:29;;;;;;;;;;;7.60;1.00;;;;;;5058455;28;19923;-78
2021/11/24 08:54:54;;;;;;;;;;;7.50;1.00;;;;;;5040605;28;20936;-79
2021/11/24 08:57:21;;;;;;;;;;;7.40;1.00;;;;;;5057272;28;19912;-78
2021/11/24 08:59:47;;;;;;;;;;;7.40;1.00;;;;;;5065168;28;19912;-78
2021/11/24 09:02:13;;;;;;;;;;;7.50;1.00;;;;;;5064121;28;19917;-78
2021/11/24 09:04:38;;;;;;;;;;;7.50;1.00;;;;;;5064224;28;19923;-78
2021/11/24 09:07:04;;;;;;;;;;;7.60;1.00;;;;;;5042651;28;19909;-78
2021/11/24 09:09:29;;;;;;;;;;;7.70;1.00;;;;;;5064453;28;20346;-78
2021/11/24 09:11:54;;;;;;;;;;;7.70;99.90;;;;;;5060830;28;19909;-79
2021/11/24 09:14:20;;;;;;;;;;;7.80;99.90;;;;;;5062772;28;19921;-79
2021/11/24 09:16:46;;;;;;;;;;;7.80;99.90;;;;;;5060031;28;19908;-78
2021/11/24 09:19:11;;;;;;;;;;;7.90;99.90;;;;;;5058198;28;19917;-78
2021/11/24 09:21:38;;;;;;;;;;;8.00;99.90;;;;;;5057273;28;19909;-78
2021/11/24 09:24:10;;;;;;;;;;;8.00;99.90;;;;;;5037458;28;19925;-79
2021/11/24 09:26:45;;;;;;;;;;;8.00;99.90;;;;;;5044449;28;19959;-78
2021/11/24 09:29:11;;;;;;;;;;;8.10;99.90;;;;;;5037388;28;19963;-78
2021/11/24 09:31:37;;;;;;;;;;;8.10;99.90;;;;;;5060292;28;19920;-78
2021/11/24 09:34:02;;;;;;;;;;;8.20;99.90;;;;;;5052285;28;20446;-78
2021/11/24 09:36:28;;;;;;;;;;;8.20;99.90;;;;;;5054976;28;19917;-78
2021/11/24 09:38:54;;;;;;;;;;;8.30;99.90;;;;;;5053147;28;19966;-79
2021/11/24 09:41:24;;;;;;;;;;;8.30;31.50;;;;;;5053434;28;19913;-78
2021/11/24 09:43:51;;;;;;;;;;;8.40;99.40;;;;;;5033779;28;19917;-78
2021/11/24 09:46:18;;;;;;;;;;;8.50;50.40;;;;;;5053210;28;19978;-78
2021/11/24 09:48:44;;;;;;;;;;;8.60;1.00;;;;;;5040926;28;19976;-79
2021/11/24 09:51:11;;;;;;;;;;;8.70;1.00;;;;;;5048627;28;19912;-78
2021/11/24 09:53:36;;;;;;;;;;;8.70;99.90;;;;;;5051737;28;19916;-79
2021/11/24 09:56:02;;;;;;;;;;;8.60;99.90;;;;;;5054929;28;19963;-78
2021/11/24 09:58:27;;;;;;;;;;;8.70;99.90;;;;;;5051596;28;19935;-78
2021/11/24 10:00:53;;;;;;;;;;;8.80;99.90;;;;;;5054893;28;20340;-78
2021/11/24 10:03:19;;;;;;;;;;;8.90;99.90;;;;;;5036654;28;19919;-79
2021/11/24 10:05:47;;;;;;;;;;;9.00;99.90;;;;;;5055665;28;20331;-78
2021/11/24 10:08:12;;;;;;;;;;;9.10;99.90;;;;;;5035091;28;19917;-79
2021/11/24 10:10:37;;;;;;;;;;;9.20;19.90;;;;;;5055523;28;20346;-78
2021/11/24 10:13:03;;;;;;;;;;;9.20;1.00;;;;;;5054806;28;19916;-78
2021/11/24 10:15:34;;;;;;;;;;;9.20;1.00;;;;;;5056312;28;19932;-79
2021/11/24 10:18:29;;;;;;;;;;;9.30;1.00;;;;;;5053613;28;19913;-78
2021/11/24 10:20:58;;;;;;;;;;;9.40;99.90;;;;;;5015128;28;19917;-78
2021/11/24 10:23:32;;;;;;;;;;;9.60;99.90;;;;;;5042389;28;19921;-79
2021/11/24 10:26:16;;;;;;;;;;;9.60;1.00;;;;;;5039741;28;19917;-79
2021/11/24 10:28:47;;;;;;;;;;;9.70;1.00;;;;;;5051942;28;20369;-78
2021/11/24 10:31:30;;;;;;;;;;;9.70;1.00;;;;;;5089039;22;19925;-84
2021/11/24 10:33:56;;;;;;;;;;;9.60;99.90;;;;;;5069854;28;19917;-84
2021/11/24 10:36:22;;;;;;;;;;;9.70;99.90;;;;;;5066299;28;19920;-84
2021/11/24 10:38:49;;;;;;;;;;;9.70;99.90;;;;;;5076214;28;19913;-84
2021/11/24 10:41:25;;;;;;;;;;;9.60;1.30;;;;;;5057939;28;20394;-84
2021/11/24 10:43:51;;;;;;;;;;;9.50;99.90;;;;;;5047389;28;19967;-84
2021/11/24 10:46:17;;;;;;;;;;;9.50;99.90;;;;;;5051139;28;19913;-84
2021/11/24 10:48:43;;;;;;;;;;;9.60;99.90;;;;;;5047543;28;19963;-84
2021/11/24 10:51:28;;;;;;;;;;;9.50;99.90;;;;;;5049425;28;19974;-84
2021/11/24 10:54:03;;;;;;;;;;;9.50;99.90;;;;;;5054459;28;19988;-84
2021/11/24 10:56:29;;;;;;;;;;;9.50;99.90;;;;;;5055982;28;19917;-84
2021/11/24 10:59:13;;;;;;;;;;;9.50;37.20;;;;;;5055537;28;20042;-84
2021/11/24 11:01:39;;;;;;;;;;;9.50;26.40;;;;;;5053515;28;19919;-84
2021/11/24 11:04:10;;;;;;;;;;;9.50;1.00;;;;;;5040478;28;19913;-84
2021/11/24 11:06:37;;;;;;;;;;;9.50;99.90;;;;;;5051518;28;20007;-84
2021/11/24 11:09:03;;;;;;;;;;;9.60;99.90;;;;;;5054876;28;20368;-84
2021/11/24 11:11:29;;;;;;;;;;;9.70;1.00;;;;;;5050458;28;19920;-84
2021/11/24 11:14:16;;;;;;;;;;;9.80;99.00;;;;;;5054168;28;20658;-83
2021/11/24 11:16:46;;;;;;;;;;;9.80;52.90;;;;;;5054128;28;20323;-84
2021/11/24 11:19:31;;;;;;;;;;;9.80;1.00;;;;;;5056916;28;19920;-84
2021/11/24 11:21:59;;;;;;;;;;;9.80;55.70;;;;;;5045519;28;19924;-84
2021/11/24 11:24:25;;;;;;;;;;;9.90;99.90;;;;;;5056225;28;19913;-83
2021/11/24 11:26:50;;;;;;;;;;;9.90;1.00;;;;;;5058844;28;19935;-84
2021/11/24 11:29:16;;;;;;;;;;;9.90;1.00;;;;;;5054062;28;19966;-84
2021/11/24 11:31:42;;;;;;;;;;;9.90;1.00;;;;;;5048221;28;19932;-84
2021/11/24 11:34:10;;;;;;;;;;;9.90;1.00;;;;;;5058992;28;19917;-85
2021/11/24 11:36:36;;;;;;;;;;;9.90;1.00;;;;;;5059209;28;19913;-84
2021/11/24 11:39:03;;;;;;;;;;;10.00;1.00;;;;;;5051387;28;19913;-84
2021/11/24 11:41:32;;;;;;;;;;;10.10;1.00;;;;;;5047109;28;19925;-84
2021/11/24 11:43:58;;;;;;;;;;;10.20;99.90;;;;;;5047110;28;19913;-84
2021/11/24 11:46:44;;;;;;;;;;;10.30;99.90;;;;;;5046655;28;19920;-84
2021/11/24 11:49:12;;;;;;;;;;;10.40;99.90;;;;;;5047894;28;20364;-84
2021/11/24 11:51:39;;;;;;;;;;;10.30;1.00;;;;;;5052727;28;20356;-84
2021/11/24 11:54:07;;;;;;;;;;;10.40;1.00;;;;;;5049847;28;20413;-84
2021/11/24 11:56:38;;;;;;;;;;;10.50;1.00;;;;;;5049136;28;19916;-84
2021/11/24 11:59:04;;;;;;;;;;;10.60;1.00;;;;;;5047605;28;19956;-84
2021/11/24 12:01:35;;;;;;;;;;;10.70;1.00;;;;;;5056578;28;20395;-85
2021/11/24 12:04:01;;;;;;;;;;;10.60;99.90;;;;;;5048723;28;19974;-85
2021/11/24 12:06:44;;;;;;;;;;;10.60;99.90;;;;;;5051491;28;20369;-84
2021/11/24 12:09:11;;;;;;;;;;;10.70;99.90;;;;;;5051946;28;19920;-83
2021/11/24 12:11:55;;;;;;;;;;;10.60;1.00;;;;;;5058572;28;19913;-84
2021/11/24 12:14:38;;;;;;;;;;;10.60;1.00;;;;;;5051933;28;19976;-84
2021/11/24 12:17:22;;;;;;;;;;;10.50;99.90;;;;;;5059178;28;19913;-85
2021/11/24 12:19:48;;;;;;;;;;;10.70;99.90;;;;;;5056045;28;19913;-85
2021/11/24 12:22:13;;;;;;;;;;;10.70;99.90;;;;;;5057966;28;19923;-85
2021/11/24 12:24:39;;;;;;;;;;;10.60;99.90;;;;;;5059133;28;19909;-84
2021/11/24 12:27:05;;;;;;;;;;;10.80;99.90;;;;;;5058857;28;20369;-85
2021/11/24 12:29:42;;;;;;;;;;;11.00;99.90;;;;;;5059946;28;19916;-85
2021/11/24 12:32:08;;;;;;;;;;;11.30;41.00;;;;;;5059867;28;20360;-85
2021/11/24 12:34:33;;;;;;;;;;;11.40;1.00;;;;;;5059708;28;19912;-85
2021/11/24 12:36:59;;;;;;;;;;;11.40;99.90;;;;;;5056620;28;20276;-85
2021/11/24 12:39:25;;;;;;;;;;;11.50;99.90;;;;;;5059442;28;19917;-84
2021/11/24 12:41:50;;;;;;;;;;;11.50;99.90;;;;;;5040137;28;19909;-85
2021/11/24 12:44:16;;;;;;;;;;;11.80;99.90;;;;;;5039942;28;19976;-85
2021/11/24 12:46:43;;;;;;;;;;;12.00;99.90;;;;;;5040382;28;20004;-84
2021/11/24 12:49:14;;;;;;;;;;;12.00;99.90;;;;;;5040627;28;19932;-84
2021/11/24 12:51:48;;;;;;;;;;;11.90;99.90;;;;;;5042117;28;19991;-85
2021/11/24 12:54:14;;;;;;;;;;;11.60;99.90;;;;;;5058853;28;19913;-85
2021/11/24 12:56:40;;;;;;;;;;;11.30;99.90;;;;;;5063200;28;20454;-84
2021/11/24 12:59:07;;;;;;;;;;;11.00;99.90;;;;;;5064110;28;20392;-84
2021/11/24 13:01:43;;;;;;;;;;;10.70;99.90;;;;;;5065806;28;19925;-85
2021/11/24 13:04:10;;;;;;;;;;;10.50;99.90;;;;;;5064264;28;19916;-84
2021/11/24 13:06:37;;;;;;;;;;;10.30;99.90;;;;;;5060248;28;19908;-84
2021/11/24 13:09:08;;;;;;;;;;;10.10;1.00;;;;;;5056538;28;19913;-85
2021/11/24 13:11:34;;;;;;;;;;;9.90;1.00;;;;;;5055033;28;19909;-84
2021/11/24 13:14:00;;;;;;;;;;;9.60;1.00;;;;;;5057796;28;19952;-84
2021/11/24 13:16:26;;;;;;;;;;;9.50;1.00;;;;;;5055648;28;19916;-84
2021/11/24 13:18:52;;;;;;;;;;;9.50;99.90;;;;;;5058871;28;19912;-84
2021/11/24 13:21:18;;;;;;;;;;;9.40;99.90;;;;;;5059229;28;19916;-84
2021/11/24 13:23:43;;;;;;;;;;;9.40;99.90;;;;;;5061133;28;19909;-85
2021/11/24 13:26:09;;;;;;;;;;;9.40;1.00;;;;;;5060110;28;19909;-84
2021/11/24 13:28:34;;;;;;;;;;;9.30;99.90;;;;;;5055862;28;19920;-84
2021/11/24 13:31:01;;;;;;;;;;;9.30;1.00;;;;;;5059079;28;19916;-84
2021/11/24 13:33:29;;;;;;;;;;;9.40;1.00;;;;;;5058816;28;19912;-84
2021/11/24 13:35:54;;;;;;;;;;;9.50;99.90;;;;;;5058810;28;20347;-85
2021/11/24 13:38:32;;;;;;;;;;;9.50;99.90;;;;;;5059454;28;19941;-84
2021/11/24 13:41:00;;;;;;;;;;;9.50;99.90;;;;;;5048033;28;19909;-84
2021/11/24 13:43:36;;;;;;;;;;;9.40;1.00;;;;;;5036586;28;19909;-84
2021/11/24 13:46:13;;;;;;;;;;;9.50;99.90;;;;;;5058739;28;19909;-84
2021/11/24 13:48:39;;;;;;;;;;;9.50;99.90;;;;;;5058582;28;19915;-84
2021/11/24 13:51:06;;;;;;;;;;;9.50;99.10;;;;;;5055910;28;19909;-84
2021/11/24 13:53:38;;;;;;;;;;;9.60;34.70;;;;;;5056082;28;20328;-84
2021/11/24 13:56:09;;;;;;;;;;;9.60;1.00;;;;;;5057923;28;19908;-84
2021/11/24 13:58:34;;;;;;;;;;;9.50;1.00;;;;;;5059709;28;19920;-85
2021/11/24 14:01:11;;;;;;;;;;;9.40;1.00;;;;;;5062350;28;19913;-84
2021/11/24 14:03:37;;;;;;;;;;;9.30;1.00;;;;;;5066196;28;19972;-84
2021/11/24 14:06:02;;;;;;;;;;;9.20;1.00;;;;;;5067304;28;19920;-84
2021/11/24 14:08:36;;;;;;;;;;;9.10;1.00;;;;;;5065479;28;19924;-85
2021/11/24 14:11:01;;;;;;;;;;;9.00;1.00;;;;;;5065666;28;19913;-85
2021/11/24 14:13:31;;;;;;;;;;;9.10;1.00;;;;;;5066837;28;19967;-85
2021/11/24 14:16:06;;;;;;;;;;;9.00;1.00;;;;;;5067010;28;19941;-84
2021/11/24 14:18:31;;;;;;;;;;;9.10;1.00;;;;;;5062840;28;20012;-85
2021/11/24 14:20:57;;;;;;;;;;;9.20;1.00;;;;;;5066099;28;19909;-84
2021/11/24 14:23:24;;;;;;;;;;;9.40;1.00;;;;;;5063441;28;19905;-85
2021/11/24 14:25:52;;;;;;;;;;;9.50;1.00;;;;;;5065285;28;19909;-84
2021/11/24 14:28:20;;;;;;;;;;;9.40;1.00;;;;;;5064796;28;20003;-84
2021/11/24 14:30:46;;;;;;;;;;;9.30;1.00;;;;;;5065984;28;19923;-84
2021/11/24 14:33:13;;;;;;;;;;;9.50;1.00;;;;;;5064613;28;19967;-84
2021/11/24 14:35:38;;;;;;;;;;;9.50;1.00;;;;;;5059045;28;20265;-85
2021/11/24 14:38:04;;;;;;;;;;;9.50;1.00;;;;;;5063421;28;19915;-85
2021/11/24 14:40:31;;;;;;;;;;;9.30;1.00;;;;;;5056585;28;19963;-84